Time;durP1;ratioP1;P1;durP2;ratioP2;P2;SDS_P1;SDS_P2;PMS_P1;PMS_P2;Temp;Humidity;BMP_temperature;BMP_pressure;BME280_temperature;BME280_humidity;BME280_pressure;Samples;Min_cycle;Max_cycle;Signal;HPM_P1;HPM_P2
2023/05/31 00:00:00;;;;;;;;;5.00;4.00;;;;;20.83;47.23;68404.69;6369745;22;45389;-90
2023/05/31 05:01:24;;;;;;;;;6.00;4.33;;;;;17.85;52.13;63908.50;6296756;22;46355;-88
2023/05/31 05:03:51;;;;;;;;;6.33;5.00;;;;;18.82;52.71;63785.16;6366180;22;45310;-88
2023/05/31 05:06:17;;;;;;;;;7.00;4.00;;;;;18.34;52.73;63638.09;6337878;22;45340;-86
2023/05/31 05:08:46;;;;;;;;;2.67;2.67;;;;;18.48;52.83;63594.16;6337936;22;45531;-85
2023/05/31 05:11:11;;;;;;;;;2.00;2.00;;;;;18.61;52.63;63529.78;6337004;22;46997;-86
2023/05/31 05:13:37;;;;;;;;;3.33;3.33;;;;;18.89;52.28;63768.81;6337879;22;45784;-86
2023/05/31 05:16:03;;;;;;;;;6.33;3.67;;;;;18.65;52.35;63620.34;6366392;22;45312;-86
2023/05/31 05:18:29;;;;;;;;;6.00;3.67;;;;;18.96;52.42;63468.75;6366836;22;45389;-86
2023/05/31 05:20:56;;;;;;;;;7.67;4.00;;;;;18.97;52.52;63462.38;6337730;22;46471;-85
2023/05/31 05:23:22;;;;;;;;;2.33;2.33;;;;;18.99;52.17;63509.53;6365723;22;45460;-86
2023/05/31 05:25:47;;;;;;;;;5.67;5.67;;;;;19.02;52.54;63432.53;6367028;22;45311;-87
2023/05/31 05:28:13;;;;;;;;;4.33;3.00;;;;;19.05;52.60;63269.88;6367320;22;45459;-87
2023/05/31 05:30:38;;;;;;;;;5.33;5.33;;;;;18.68;52.42;63091.34;6338098;22;48190;-86
2023/05/31 05:33:04;;;;;;;;;4.00;4.00;;;;;18.61;52.34;63101.88;6363204;22;45337;-85
2023/05/31 05:35:30;;;;;;;;;5.33;4.00;;;;;19.08;52.83;63117.94;6365665;22;45417;-86
2023/05/31 05:37:57;;;;;;;;;5.00;3.33;;;;;18.47;52.77;62988.19;6337295;22;45334;-85
2023/05/31 05:40:23;;;;;;;;;1.00;1.00;;;;;19.10;52.70;63096.03;6365357;22;45710;-87
2023/05/31 05:42:48;;;;;;;;;5.00;4.00;;;;;19.12;52.29;62953.66;6366749;22;45329;-86
2023/05/31 05:45:14;;;;;;;;;1.33;1.33;;;;;19.14;52.10;63011.53;6365163;22;45457;-86
2023/05/31 05:47:40;;;;;;;;;5.33;4.33;;;;;19.14;52.45;62982.06;6338058;22;45429;-88
2023/05/31 05:50:06;;;;;;;;;2.67;2.67;;;;;19.18;52.65;62957.53;6337537;22;46398;-86
2023/05/31 05:52:32;;;;;;;;;5.33;4.67;;;;;19.20;51.98;62900.28;6338836;22;45305;-86
2023/05/31 05:54:57;;;;;;;;;4.33;3.00;;;;;19.14;52.27;62867.53;6368128;22;45413;-87
2023/05/31 05:57:24;;;;;;;;;30.67;26.33;;;;;18.90;52.18;62871.38;6368105;22;45515;-83
2023/05/31 05:59:50;;;;;;;;;14.67;10.33;;;;;19.28;52.25;62790.66;6366600;22;45422;-82
2023/05/31 06:02:15;;;;;;;;;7.33;3.00;;;;;-145.03;52.25;47111.38;6354708;22;45309;-84
2023/05/31 06:04:41;;;;;;;;;3.00;3.00;;;;;-97.90;52.25;64036.25;6386490;22;28486;-84
2023/05/31 06:07:07;;;;;;;;;4.00;4.00;;;;;-97.90;52.25;64036.25;6357466;22;28587;-84
2023/05/31 06:09:32;;;;;;;;;2.00;2.00;;;;;-145.03;52.25;57059.69;6385325;22;28460;-83
2023/05/31 06:11:58;;;;;;;;;5.33;5.33;;;;;-97.90;52.07;64027.53;6357902;22;29012;-86
2023/05/31 06:14:23;;;;;;;;;3.00;2.33;;;;;-97.90;52.07;64027.53;6387085;22;28314;-83
2023/05/31 06:16:48;;;;;;;;;4.67;3.33;;;;;-97.90;52.07;64027.53;6387595;22;28326;-87
2023/05/31 06:19:13;;;;;;;;;6.00;4.00;;;;;-97.90;52.07;64027.53;6387248;22;29121;-82
2023/05/31 06:21:39;;;;;;;;;3.33;3.33;;;;;-97.90;52.07;64027.53;6386627;22;28743;-82
2023/05/31 06:24:05;;;;;;;;;6.00;4.00;;;;;-97.90;42.44;64025.00;6386591;22;28830;-82
2023/05/31 06:26:31;;;;;;;;;4.00;3.00;;;;;-97.90;42.44;64025.00;6359646;22;28582;-83
2023/05/31 06:29:00;;;;;;;;;1.67;1.67;;;;;-97.90;52.07;64027.53;6387183;22;29376;-82
2023/05/31 06:31:26;;;;;;;;;4.67;4.00;;;;;-97.90;52.07;64027.53;6387889;22;28490;-84
2023/05/31 06:33:51;;;;;;;;;6.00;6.00;;;;;-97.90;52.07;64027.53;6386753;22;28446;-83
2023/05/31 06:36:17;;;;;;;;;2.00;2.00;;;;;-145.03;52.07;57573.75;6386990;22;28497;-81
2023/05/31 06:38:42;;;;;;;;;3.33;3.33;;;;;-145.03;51.94;65789.53;6386215;22;28474;-81
2023/05/31 06:41:07;;;;;;;;;3.00;2.00;;;;;-97.90;51.98;63818.19;6357502;22;28475;-83
2023/05/31 06:43:33;;;;;;;;;3.00;3.00;;;;;-97.90;51.98;63818.19;6387817;22;28747;-84
2023/05/31 06:45:58;;;;;;;;;3.33;3.33;;;;;-97.90;51.98;63818.19;6358950;22;28527;-84
2023/05/31 06:48:23;;;;;;;;;3.00;3.00;;;;;-97.90;51.98;63818.19;6358094;22;30114;-83
2023/05/31 06:50:49;;;;;;;;;3.33;2.67;;;;;-97.90;42.37;63815.91;6386892;22;28384;-85
2023/05/31 06:53:14;;;;;;;;;2.00;1.33;;;;;-97.90;51.98;63818.19;6386127;22;30387;-84
2023/05/31 06:55:39;;;;;;;;;3.00;1.00;;;;;-97.90;51.98;63818.19;6388090;22;28426;-84
2023/05/31 06:58:05;;;;;;;;;2.00;2.00;;;;;-97.90;42.37;63815.91;6359159;22;28306;-84
2023/05/31 07:00:31;;;;;;;;;2.67;2.67;;;;;-145.03;42.37;70844.50;6387468;22;28735;-84
2023/05/31 07:02:56;;;;;;;;;3.00;3.00;;;;;-97.90;51.70;63809.47;6358473;22;28339;-84
2023/05/31 07:05:21;;;;;;;;;3.00;3.00;;;;;-97.90;51.70;63809.47;6359296;22;28564;-84
2023/05/31 07:07:47;;;;;;;;;2.67;2.67;;;;;-145.03;51.70;71267.31;6358713;22;29656;-85
2023/05/31 07:10:13;;;;;;;;;4.33;2.33;;;;;-97.90;51.46;63752.72;6387207;22;28340;-84
2023/05/31 07:12:38;;;;;;;;;4.00;2.33;;;;;-97.90;51.46;63752.72;6387692;22;28419;-84
2023/05/31 07:15:04;;;;;;;;;4.33;2.00;;;;;-97.90;51.46;63752.72;6387768;22;28530;-84
2023/05/31 07:17:30;;;;;;;;;2.00;2.00;;;;;-97.90;51.46;63752.72;6387157;22;29153;-84
2023/05/31 07:19:55;;;;;;;;;3.00;1.00;;;;;-97.90;51.46;63752.97;6386806;22;28843;-84
2023/05/31 07:22:22;;;;;;;;;3.00;2.33;;;;;-97.90;51.46;63752.72;6387503;22;28441;-84
2023/05/31 07:24:47;;;;;;;;;1.00;1.00;;;;;-97.90;51.46;63752.72;6387613;22;28470;-84
2023/05/31 07:27:13;;;;;;;;;5.33;4.67;;;;;-97.90;51.46;63752.72;6387209;22;28408;-85
2023/05/31 07:29:38;;;;;;;;;3.33;2.33;;;;;19.49;51.46;58698.78;6387450;22;28420;-85
2023/05/31 07:32:04;;;;;;;;;2.33;2.33;;;;;-97.90;51.25;63702.47;6359063;22;28312;-85
2023/05/31 07:34:29;;;;;;;;;2.33;1.33;;;;;-97.90;51.25;63702.47;6358809;22;28483;-85
2023/05/31 07:36:55;;;;;;;;;1.00;1.00;;;;;-97.90;51.25;63702.47;6387490;22;28510;-84
2023/05/31 07:39:24;;;;;;;;;3.00;2.33;;;;;-97.90;51.25;63702.47;6358800;22;29403;-84
2023/05/31 07:41:49;;;;;;;;;3.00;3.00;;;;;-145.03;51.25;78061.38;6387619;22;28419;-85
2023/05/31 07:44:19;;;;;;;;;2.00;1.00;;;;;-145.03;51.08;53219.50;6387447;22;28460;-84
2023/05/31 07:46:44;;;;;;;;;1.00;1.00;;;;;20.05;51.05;58417.38;6387093;22;29101;-84
2023/05/31 07:49:10;;;;;;;;;1.00;1.00;;;;;-145.03;51.05;46646.97;6387276;22;28437;-84
2023/05/31 07:51:35;;;;;;;;;3.00;3.00;;;;;-97.90;51.05;62261.75;6387478;22;28458;-84
2023/05/31 07:54:02;;;;;;;;;3.00;3.00;;;;;20.10;51.05;58408.75;6387449;22;28322;-85
2023/05/31 07:56:27;;;;;;;;;1.33;1.33;;;;;-97.90;50.97;63400.56;6387168;22;28823;-85
2023/05/31 07:58:52;;;;;;;;;2.00;2.00;;;;;-145.03;50.97;60995.56;6359092;22;30090;-84
2023/05/31 08:01:18;;;;;;;;;1.33;1.33;;;;;-97.90;50.94;63383.06;6387429;22;28395;-85
2023/05/31 08:03:43;;;;;;;;;1.33;1.33;;;;;-97.90;50.94;63453.44;6387426;22;28476;-84
2023/05/31 08:06:09;;;;;;;;;4.00;2.00;;;;;-97.90;50.94;63383.06;6358685;22;29665;-85
2023/05/31 08:08:34;;;;;;;;;1.67;1.67;;;;;-97.90;50.94;63383.06;6387039;22;28411;-85
2023/05/31 08:11:00;;;;;;;;;1.00;1.00;;;;;20.28;50.94;58225.06;6358844;22;28469;-84
2023/05/31 08:13:28;;;;;;;;;3.00;1.00;;;;;-145.03;50.67;64521.13;6358445;22;28431;-85
2023/05/31 08:15:54;;;;;;;;;0.67;0.67;;;;;-97.90;50.65;63238.38;6387271;22;28330;-85
2023/05/31 08:18:19;;;;;;;;;1.00;1.00;;;;;-97.90;50.65;63238.38;6387119;22;28326;-84
2023/05/31 08:20:44;;;;;;;;;2.00;2.00;;;;;-97.90;50.65;63272.81;6387184;22;28325;-84
2023/05/31 08:23:20;;;;;;;;;1.67;1.67;;;;;-97.90;50.65;63238.38;6358548;22;28677;-84
2023/05/31 08:25:46;;;;;;;;;2.00;2.00;;;;;-97.90;50.87;63097.81;6386944;22;28379;-85
2023/05/31 08:28:11;;;;;;;;;2.00;2.00;;;;;-97.90;50.65;63272.81;6358864;22;28379;-84
2023/05/31 08:30:37;;;;;;;;;1.00;1.00;;;;;-97.90;50.87;63097.81;6387363;22;28451;-85
2023/05/31 08:33:02;;;;;;;;;2.33;2.33;;;;;-97.90;41.46;63272.81;6387142;22;28462;-85
2023/05/31 08:35:27;;;;;;;;;2.00;2.00;;;;;-97.90;50.65;63238.38;6391066;22;28625;-85
2023/05/31 08:37:54;;;;;;;;;1.33;1.33;;;;;20.49;50.87;57873.00;6392626;22;28428;-84
2023/05/31 08:40:20;;;;;;;;;3.00;3.00;;;;;-97.90;50.65;63238.38;6362536;22;28472;-84
2023/05/31 08:43:07;;;;;;;;;2.33;2.00;;;;;-97.90;50.87;63097.81;6390038;22;28480;-85
2023/05/31 08:45:34;;;;;;;;;1.33;1.33;;;;;-97.90;50.87;63097.81;6386325;22;28897;-84
2023/05/31 08:48:11;;;;;;;;;2.00;2.00;;;;;-97.90;50.87;63063.50;6387207;22;28358;-85
2023/05/31 08:50:38;;;;;;;;;2.00;2.00;;;;;-97.90;50.87;63097.81;6387281;22;28400;-84
2023/05/31 08:53:06;;;;;;;;;2.33;2.33;;;;;-97.90;50.87;63063.50;6386926;22;28505;-85
2023/05/31 08:55:31;;;;;;;;;2.00;2.00;;;;;-97.90;50.65;63272.81;6358239;22;28469;-85
2023/05/31 08:57:59;;;;;;;;;2.67;2.67;;;;;-97.90;50.87;63063.50;6386880;22;28442;-85
2023/05/31 09:00:24;;;;;;;;;1.00;1.00;;;;;-97.90;50.87;63097.81;6386521;22;28499;-85
2023/05/31 09:02:51;;;;;;;;;2.00;2.00;;;;;-145.03;50.87;46245.31;6386893;22;28357;-85
2023/05/31 09:05:16;;;;;;;;;1.33;1.33;;;;;21.82;49.81;60575.50;6374157;22;45343;-85
2023/05/31 09:07:42;;;;;;;;;2.00;2.00;;;;;22.04;49.46;59764.53;6339264;22;45858;-85
2023/05/31 09:10:08;;;;;;;;;2.33;2.33;;;;;22.91;49.88;58650.56;6368024;22;45238;-85
2023/05/31 09:12:35;;;;;;;;;1.67;1.67;;;;;23.84;48.69;57234.34;6368544;22;45502;-85
2023/05/31 09:15:01;;;;;;;;;3.00;3.00;;;;;24.83;48.28;56216.91;6367218;22;47158;-86
2023/05/31 09:17:26;;;;;;;;;2.00;2.00;;;;;-145.03;100.00;62373.16;6373970;22;45290;-85
2023/05/31 09:19:54;;;;;;;;;4.67;3.33;;;;;-145.03;100.00;62373.16;6358107;22;28446;-85
2023/05/31 09:22:22;;;;;;;;;2.33;2.33;;;;;-145.03;100.00;62373.16;6387212;22;28345;-86
2023/05/31 09:24:55;;;;;;;;;2.00;2.00;;;;;-145.03;100.00;62373.16;6386535;22;28432;-86
2023/05/31 09:27:21;;;;;;;;;2.25;2.25;;;;;29.30;43.11;57451.69;6371974;22;45299;-86
2023/05/31 09:29:54;;;;;;;;;2.00;2.00;;;;;30.09;42.23;59269.56;6367706;22;45318;-86
2023/05/31 09:32:20;;;;;;;;;4.00;2.00;;;;;30.76;41.60;60723.09;6368198;22;45475;-85
2023/05/31 09:34:46;;;;;;;;;2.33;2.33;;;;;31.39;40.24;62787.09;6367271;22;46198;-86
2023/05/31 09:37:24;;;;;;;;;3.00;3.00;;;;;31.99;39.49;63925.97;6367394;22;45341;-86
2023/05/31 09:39:57;;;;;;;;;2.33;2.00;;;;;32.42;38.68;64995.19;6367635;22;45349;-86
2023/05/31 09:42:25;;;;;;;;;2.33;2.33;;;;;32.95;37.93;66126.16;6367685;22;45402;-86
2023/05/31 09:44:51;;;;;;;;;1.67;1.67;;;;;33.48;37.70;67735.59;6367311;22;45405;-86
2023/05/31 09:47:16;;;;;;;;;3.67;2.00;;;;;34.02;36.64;68902.75;6366705;22;45394;-86
2023/05/31 09:49:43;;;;;;;;;0.00;0.00;;;;;34.39;35.25;69700.25;6367704;22;45690;-86
2023/05/31 09:52:13;;;;;;;;;3.00;3.00;;;;;34.83;35.21;70525.84;6368136;22;45415;-86
2023/05/31 09:54:39;;;;;;;;;2.33;2.33;;;;;35.33;34.27;71348.97;6366983;22;46486;-86
2023/05/31 09:57:05;;;;;;;;;2.00;2.00;;;;;-145.03;100.00;62373.16;6366944;22;45434;-88
2023/05/31 09:59:32;;;;;;;;;1.75;1.75;;;;;-145.03;100.00;62373.16;6386184;22;28372;-86
2023/05/31 10:01:58;;;;;;;;;1.00;1.00;;;;;36.29;32.59;72792.25;6376012;22;45287;-86
2023/05/31 10:04:23;;;;;;;;;2.00;2.00;;;;;36.58;32.07;72922.78;6367059;22;45427;-86
2023/05/31 10:06:50;;;;;;;;;3.67;2.33;;;;;36.71;32.45;73051.97;6367233;22;45292;-86
2023/05/31 10:09:17;;;;;;;;;1.33;1.33;;;;;37.11;31.94;73335.00;6312823;22;45267;-86
2023/05/31 10:11:49;;;;;;;;;1.00;1.00;;;;;37.22;30.97;73522.63;6339143;22;45447;-86
2023/05/31 10:14:23;;;;;;;;;1.00;1.00;;;;;37.53;30.94;73507.53;6366599;22;47056;-86
2023/05/31 10:16:50;;;;;;;;;1.00;1.00;;;;;37.84;30.22;73644.44;6367218;22;45302;-87
2023/05/31 10:19:24;;;;;;;;;1.00;1.00;;;;;38.03;29.82;73601.84;6367020;22;45378;-87
2023/05/31 10:21:49;;;;;;;;;2.00;2.00;;;;;38.16;29.94;73598.66;6367720;22;45410;-87
2023/05/31 10:24:25;;;;;;;;;1.00;1.00;;;;;38.36;29.48;73492.97;6366838;22;47099;-87
2023/05/31 10:27:00;;;;;;;;;2.00;2.00;;;;;38.58;28.87;73278.41;6366535;22;45723;-87
2023/05/31 10:29:35;;;;;;;;;1.00;1.00;;;;;38.71;28.15;73152.78;6366738;22;45377;-86
2023/05/31 10:32:20;;;;;;;;;0.00;0.00;;;;;38.86;27.60;72858.59;6367428;22;45443;-86
2023/05/31 10:34:46;;;;;;;;;0.33;0.33;;;;;38.85;28.07;73043.44;6366668;22;47506;-86
2023/05/31 10:37:12;;;;;;;;;2.00;2.00;;;;;39.00;27.67;72881.41;6367720;22;45340;-86
2023/05/31 10:39:38;;;;;;;;;2.33;2.33;;;;;39.25;27.21;72798.13;6368582;22;45285;-86
2023/05/31 10:42:14;;;;;;;;;0.00;0.00;;;;;39.34;27.12;72689.50;6340436;22;45409;-86
2023/05/31 10:44:48;;;;;;;;;0.33;0.33;;;;;39.45;26.70;72444.81;6368385;22;47128;-87
2023/05/31 10:47:20;;;;;;;;;1.33;1.33;;;;;39.53;26.63;72316.09;6368089;22;45275;-87
2023/05/31 10:49:49;;;;;;;;;0.33;0.33;;;;;39.53;26.43;72233.00;6340127;22;45354;-87
2023/05/31 10:52:16;;;;;;;;;0.33;0.33;;;;;39.66;26.47;72135.28;6368875;22;45420;-87
2023/05/31 10:54:41;;;;;;;;;1.00;1.00;;;;;39.71;25.95;71869.22;6368703;22;45946;-87
2023/05/31 10:57:07;;;;;;;;;1.00;1.00;;;;;39.78;26.34;71940.88;6368444;22;45369;-87
2023/05/31 10:59:45;;;;;;;;;4.00;3.00;;;;;39.86;26.03;72020.53;6314244;22;45381;-86
2023/05/31 11:02:10;;;;;;;;;0.00;0.00;;;;;39.87;25.71;71930.28;6368437;22;45262;-87
2023/05/31 11:04:36;;;;;;;;;3.00;3.00;;;;;40.06;25.82;71902.94;6340441;22;45333;-87
2023/05/31 11:07:12;;;;;;;;;2.00;2.00;;;;;40.11;24.99;71431.56;6369034;22;45344;-87
2023/05/31 11:09:39;;;;;;;;;1.67;1.67;;;;;40.06;25.00;71439.34;6368553;22;45477;-86
2023/05/31 11:12:05;;;;;;;;;2.00;2.00;;;;;40.02;24.58;71240.50;6368790;22;45472;-87
2023/05/31 11:14:31;;;;;;;;;0.33;0.33;;;;;40.01;25.38;71419.44;6368301;22;45432;-86
2023/05/31 11:16:57;;;;;;;;;0.67;0.67;;;;;40.21;24.99;71174.69;6368661;22;45425;-86
2023/05/31 11:19:34;;;;;;;;;0.00;0.00;;;;;40.22;24.39;71017.28;6368473;22;45661;-86
2023/05/31 11:22:07;;;;;;;;;1.33;1.33;;;;;39.97;24.64;71052.16;6368279;22;45306;-87
2023/05/31 11:24:49;;;;;;;;;0.67;0.67;;;;;40.15;24.67;71023.31;6368564;22;46232;-86
2023/05/31 11:27:15;;;;;;;;;1.00;1.00;;;;;40.12;24.73;70972.59;6367967;22;45432;-87
2023/05/31 11:29:44;;;;;;;;;1.00;0.33;;;;;40.07;24.63;70967.19;6340395;22;45348;-87
2023/05/31 11:32:13;;;;;;;;;0.00;0.00;;;;;40.01;24.28;70660.06;6368491;22;45483;-87
2023/05/31 11:34:57;;;;;;;;;1.33;1.33;;;;;39.90;23.86;70500.66;6368435;22;46090;-87
2023/05/31 11:37:27;;;;;;;;;1.00;1.00;;;;;39.82;24.06;70502.16;6368675;22;45691;-87
2023/05/31 11:39:57;;;;;;;;;1.33;1.33;;;;;39.67;24.39;70315.88;6368606;22;45677;-87
2023/05/31 11:42:25;;;;;;;;;1.33;0.67;;;;;39.41;24.38;70394.06;6368815;22;45708;-86
2023/05/31 11:44:53;;;;;;;;;3.33;1.00;;;;;39.28;23.85;70211.88;6367538;22;46134;-86
2023/05/31 11:47:20;;;;;;;;;1.33;1.33;;;;;38.82;24.24;70397.34;6367958;22;45638;-87
2023/05/31 11:49:45;;;;;;;;;1.33;1.33;;;;;38.59;23.99;70192.94;6339865;22;45348;-87
2023/05/31 11:52:16;;;;;;;;;0.67;0.67;;;;;37.95;24.57;70364.88;6368977;22;45346;-87
2023/05/31 11:54:45;;;;;;;;;1.33;1.33;;;;;37.64;24.95;70320.16;6368051;22;46162;-87
2023/05/31 11:57:12;;;;;;;;;1.67;1.67;;;;;37.22;25.70;70323.63;6368561;22;45326;-86
2023/05/31 11:59:39;;;;;;;;;1.67;1.67;;;;;36.62;25.88;70408.13;6340242;22;45315;-87
2023/05/31 12:02:06;;;;;;;;;2.33;2.33;;;;;36.29;25.88;70325.72;6368463;22;45391;-86
2023/05/31 12:04:40;;;;;;;;;1.00;1.00;;;;;36.07;26.03;70368.84;6368505;22;45377;-87
2023/05/31 12:07:16;;;;;;;;;2.00;1.00;;;;;35.76;26.51;70354.38;6339964;22;45349;-87
2023/05/31 12:09:42;;;;;;;;;2.00;2.00;;;;;35.45;26.75;70400.41;6367833;22;45393;-86
2023/05/31 12:12:08;;;;;;;;;2.00;2.00;;;;;35.24;27.17;70318.09;6368898;22;45375;-87
2023/05/31 12:14:35;;;;;;;;;1.00;1.00;;;;;35.00;26.71;70351.03;6368161;22;46216;-87
2023/05/31 12:17:04;;;;;;;;;2.00;2.00;;;;;34.79;27.47;70348.47;6367942;22;45312;-86
2023/05/31 12:19:31;;;;;;;;;1.67;1.67;;;;;34.58;27.78;70403.00;6367816;22;45369;-86
2023/05/31 12:21:56;;;;;;;;;2.33;1.67;;;;;34.36;27.69;70372.34;6367099;22;45339;-87
2023/05/31 12:24:21;;;;;;;;;3.33;0.33;;;;;34.00;27.47;70319.41;6367515;22;46220;-87
2023/05/31 12:26:51;;;;;;;;;2.33;1.00;;;;;33.93;28.15;70354.34;6339736;22;45453;-87
2023/05/31 12:29:17;;;;;;;;;5.00;5.00;;;;;33.92;27.87;70408.63;6339488;22;45422;-86
2023/05/31 12:31:43;;;;;;;;;2.00;2.00;;;;;33.78;27.58;70386.34;6368403;22;45231;-86
2023/05/31 12:34:11;;;;;;;;;2.33;2.33;;;;;33.64;28.05;70340.59;6367473;22;45775;-86
2023/05/31 12:36:47;;;;;;;;;1.33;1.33;;;;;33.50;28.65;70389.63;6363831;22;45936;-85
2023/05/31 12:39:14;;;;;;;;;1.33;1.33;;;;;33.39;28.27;70428.56;6366511;22;45352;-86
2023/05/31 12:41:44;;;;;;;;;2.00;2.00;;;;;32.94;28.87;70398.25;6367373;22;45701;-86
2023/05/31 12:44:09;;;;;;;;;2.00;2.00;;;;;33.00;29.15;70352.75;6339057;22;45433;-86
2023/05/31 12:46:42;;;;;;;;;1.67;1.67;;;;;32.83;28.99;70381.69;6367318;22;45356;-86
2023/05/31 12:49:21;;;;;;;;;2.67;2.00;;;;;32.94;28.96;70464.03;6367708;22;45269;-86
2023/05/31 12:52:08;;;;;;;;;3.00;2.00;;;;;32.77;29.56;70370.22;6367267;22;45339;-86
2023/05/31 12:54:35;;;;;;;;;3.33;2.00;;;;;32.74;29.02;70412.59;6366623;22;47074;-87
2023/05/31 12:57:02;;;;;;;;;1.33;1.33;;;;;32.64;29.65;70463.59;6339165;22;45388;-86
2023/05/31 12:59:28;;;;;;;;;3.00;2.00;;;;;32.53;29.49;70484.44;6367247;22;45352;-86
2023/05/31 13:01:55;;;;;;;;;1.00;1.00;;;;;32.47;29.90;70493.03;6368019;22;45720;-87
2023/05/31 13:04:21;;;;;;;;;3.67;3.67;;;;;32.18;29.89;70382.75;6367349;22;45660;-86
2023/05/31 13:06:47;;;;;;;;;1.33;1.33;;;;;32.28;29.74;70424.84;6366810;22;45368;-86
2023/05/31 13:09:12;;;;;;;;;1.00;1.00;;;;;32.14;29.84;70460.66;6367263;22;45369;-87
2023/05/31 13:11:38;;;;;;;;;2.00;1.67;;;;;32.15;29.94;70428.41;6338660;22;45348;-86
2023/05/31 13:14:05;;;;;;;;;2.67;2.67;;;;;31.86;30.00;70388.66;6367410;22;46179;-86
2023/05/31 13:16:31;;;;;;;;;2.00;2.00;;;;;31.90;30.31;70461.88;6367415;22;45477;-85
2023/05/31 13:18:58;;;;;;;;;1.00;1.00;;;;;31.70;30.08;70531.44;6367393;22;45333;-86
2023/05/31 13:21:23;;;;;;;;;3.33;3.00;;;;;31.87;30.43;70513.00;6367540;22;45480;-86
2023/05/31 13:23:49;;;;;;;;;2.00;2.00;;;;;31.73;30.69;70379.72;6367090;22;45464;-86
2023/05/31 13:26:14;;;;;;;;;4.00;3.00;;;;;31.51;30.23;70399.78;6366172;22;45731;-86
2023/05/31 13:28:40;;;;;;;;;3.00;1.67;;;;;31.71;30.32;70467.59;6337277;22;45727;-88
2023/05/31 13:31:05;;;;;;;;;1.33;1.33;;;;;31.43;30.53;70368.91;6367435;22;45314;-89
2023/05/31 13:33:31;;;;;;;;;2.00;2.00;;;;;31.59;29.99;70411.56;6366221;22;47031;-87
2023/05/31 13:35:58;;;;;;;;;1.25;1.25;;;;;31.01;30.44;70370.97;6367080;22;45356;-89
2023/05/31 13:38:23;;;;;;;;;3.25;2.25;;;;;31.49;29.95;70364.56;6368035;22;45335;-88
2023/05/31 13:40:52;;;;;;;;;1.67;1.67;;;;;31.41;29.66;70371.97;6338990;22;45387;-88
2023/05/31 13:43:24;;;;;;;;;1.67;1.00;;;;;31.32;29.97;70416.41;6368952;22;45288;-87
2023/05/31 13:45:50;;;;;;;;;2.00;2.00;;;;;31.00;29.94;70329.38;6338047;22;45525;-88
2023/05/31 13:48:16;;;;;;;;;2.00;2.00;;;;;30.88;30.34;70364.13;6338695;22;45714;-88
2023/05/31 13:50:41;;;;;;;;;1.67;1.67;;;;;31.00;30.53;70348.50;6366468;22;45557;-88
2023/05/31 13:53:09;;;;;;;;;1.75;1.00;;;;;31.03;29.91;70281.06;6366893;22;46379;-88
2023/05/31 13:55:35;;;;;;;;;1.00;1.00;;;;;30.97;30.44;70379.81;6365636;22;45378;-87
2023/05/31 13:58:00;;;;;;;;;3.67;2.00;;;;;30.78;30.07;70281.06;6339326;22;45392;-89
2023/05/31 14:00:25;;;;;;;;;2.67;1.00;;;;;30.58;30.11;70318.34;6340989;22;45347;-88
2023/05/31 14:02:54;;;;;;;;;1.00;1.00;;;;;30.74;30.28;70366.41;6367848;22;46356;-88
2023/05/31 14:05:19;;;;;;;;;2.00;2.00;;;;;30.67;30.67;70320.97;6366814;22;45361;-90
2023/05/31 14:07:45;;;;;;;;;1.00;1.00;;;;;30.62;30.34;70352.56;6339816;22;45361;-89
2023/05/31 14:10:10;;;;;;;;;1.00;1.00;;;;;30.41;30.53;70336.13;6368323;22;45289;-88
2023/05/31 14:12:36;;;;;;;;;1.67;1.67;;;;;30.48;30.65;70334.22;6366436;22;46020;-87
2023/05/31 14:15:04;;;;;;;;;1.33;1.33;;;;;30.12;30.68;70206.38;6368758;22;45353;-87
2023/05/31 14:17:30;;;;;;;;;1.33;1.00;;;;;30.40;31.16;70283.66;6368892;22;45338;-88
2023/05/31 14:19:55;;;;;;;;;1.33;1.33;;;;;30.22;30.84;70265.34;6369023;22;45424;-88
2023/05/31 14:22:21;;;;;;;;;2.00;0.67;;;;;30.30;30.95;70268.94;6368814;22;45435;-87
2023/05/31 14:24:46;;;;;;;;;2.00;1.67;;;;;30.24;31.27;70314.16;6368765;22;45743;-88
2023/05/31 14:27:12;;;;;;;;;2.00;2.00;;;;;29.84;31.56;70304.88;6368811;22;45722;-88
2023/05/31 14:29:37;;;;;;;;;1.00;1.00;;;;;30.06;31.26;70241.28;6368821;22;45831;-90
2023/05/31 14:32:03;;;;;;;;;0.75;0.75;;;;;30.13;31.06;70333.66;6368975;22;46206;-88
2023/05/31 14:34:28;;;;;;;;;1.00;1.00;;;;;29.87;31.65;70303.03;6338300;22;45435;-88
2023/05/31 14:36:53;;;;;;;;;3.00;1.00;;;;;29.61;31.72;70335.06;6368431;22;45432;-89
2023/05/31 14:39:19;;;;;;;;;0.00;0.00;;;;;29.95;31.67;70328.41;6368807;22;45520;-89
2023/05/31 14:41:44;;;;;;;;;2.33;1.00;;;;;29.73;31.92;70278.63;6340335;22;48487;-89
2023/05/31 14:44:09;;;;;;;;;1.33;1.33;;;;;29.86;31.38;70329.09;6367650;22;45404;-88
2023/05/31 14:46:35;;;;;;;;;2.00;2.00;;;;;29.78;32.01;70287.38;6367765;22;45373;-90
2023/05/31 14:49:00;;;;;;;;;2.00;2.00;;;;;29.58;32.45;70321.16;6367148;22;45224;-88
2023/05/31 14:51:28;;;;;;;;;1.00;1.00;;;;;29.64;31.84;70396.53;6368231;22;45389;-88
2023/05/31 14:53:53;;;;;;;;;1.33;1.33;;;;;29.43;32.41;70230.16;6339668;22;45385;-92
2023/05/31 14:56:19;;;;;;;;;0.25;0.25;;;;;29.81;32.45;70340.06;6370622;22;45406;-90
2023/05/31 14:58:45;;;;;;;;;1.00;1.00;;;;;29.44;32.06;70328.84;6341667;22;45365;-91
2023/05/31 15:01:11;;;;;;;;;3.33;2.00;;;;;29.48;32.60;70284.59;6340660;22;48075;-91
2023/05/31 15:03:36;;;;;;;;;1.00;1.00;;;;;29.17;32.24;70204.97;6339965;22;45314;-90
2023/05/31 15:06:02;;;;;;;;;2.00;2.00;;;;;29.36;32.32;70281.69;6341021;22;45512;-91
2023/05/31 15:08:27;;;;;;;;;3.33;0.67;;;;;29.64;32.22;70355.03;6369801;22;45555;-91
2023/05/31 15:10:52;;;;;;;;;3.67;2.00;;;;;29.29;32.28;70272.66;6339758;22;46901;-89
2023/05/31 15:13:18;;;;;;;;;3.00;2.00;;;;;29.40;32.41;70270.13;6367354;22;45739;-90
2023/05/31 15:15:43;;;;;;;;;1.00;1.00;;;;;29.53;32.40;70345.13;6340194;22;45564;-90
2023/05/31 15:18:09;;;;;;;;;1.00;1.00;;;;;29.23;32.28;70241.53;6342112;22;45752;-91
2023/05/31 15:20:34;;;;;;;;;1.00;1.00;;;;;29.25;32.40;70296.31;6368885;22;46230;-91
2023/05/31 15:22:59;;;;;;;;;1.33;1.33;;;;;29.21;32.43;70312.69;6340040;22;45412;-89
2023/05/31 15:25:25;;;;;;;;;0.67;0.67;;;;;190.65;24.06;51456.63;6342540;22;45454;-88
2023/05/31 15:27:51;;;;;;;;;1.00;1.00;;;;;29.26;32.49;70280.56;6372173;22;45367;-87
2023/05/31 15:30:17;;;;;;;;;2.00;2.00;;;;;29.11;32.76;70353.03;6368661;22;45334;-88
2023/05/31 15:32:42;;;;;;;;;1.67;1.00;;;;;29.24;32.29;70237.28;6368035;22;45315;-89
2023/05/31 15:35:07;;;;;;;;;1.33;1.33;;;;;28.86;32.40;70198.25;6368775;22;45410;-88
2023/05/31 15:37:33;;;;;;;;;1.00;1.00;;;;;28.84;32.51;70220.38;6370526;22;45333;-90
2023/05/31 15:39:58;;;;;;;;;1.00;1.00;;;;;28.91;32.74;70226.06;6340292;22;47696;-89
2023/05/31 15:42:25;;;;;;;;;1.00;1.00;;;;;28.82;32.24;70207.69;6339733;22;45360;-89
2023/05/31 15:44:50;;;;;;;;;2.00;2.00;;;;;28.76;32.27;70211.38;6368714;22;45756;-89
2023/05/31 15:47:16;;;;;;;;;0.67;0.67;;;;;28.77;32.20;70212.56;6339824;22;45475;-89
2023/05/31 15:49:42;;;;;;;;;1.00;1.00;;;;;28.97;31.88;70156.41;6368080;22;45757;-88
2023/05/31 15:52:08;;;;;;;;;0.00;0.00;;;;;28.67;32.42;70213.56;6340030;22;45620;-88
2023/05/31 15:54:33;;;;;;;;;0.00;0.00;;;;;28.55;31.97;70276.56;6339876;22;45460;-88
2023/05/31 15:56:59;;;;;;;;;0.00;0.00;;;;;28.73;32.36;70182.66;6368684;22;45698;-87
2023/05/31 15:59:24;;;;;;;;;1.00;1.00;;;;;28.48;32.57;70210.97;6368338;22;45311;-87
2023/05/31 16:01:51;;;;;;;;;1.00;1.00;;;;;28.65;32.46;70287.97;6367754;22;45452;-88
2023/05/31 16:04:16;;;;;;;;;1.00;1.00;;;;;28.80;32.77;70308.16;6368826;22;45378;-87
2023/05/31 16:06:42;;;;;;;;;2.33;1.00;;;;;28.78;32.45;70234.94;6339797;22;45658;-89
2023/05/31 16:09:08;;;;;;;;;0.33;0.33;;;;;28.74;32.30;70219.84;6368079;22;46472;-89
2023/05/31 16:11:34;;;;;;;;;1.00;1.00;;;;;28.49;32.22;70204.00;6368184;22;45231;-89
2023/05/31 16:13:59;;;;;;;;;1.00;0.33;;;;;28.44;32.43;70140.25;6340167;22;45661;-89
2023/05/31 16:16:25;;;;;;;;;1.00;1.00;;;;;28.60;32.81;70214.50;6368711;22;45347;-88
2023/05/31 16:18:50;;;;;;;;;0.00;0.00;;;;;28.36;32.85;70163.91;6368559;22;45758;-88
2023/05/31 16:21:16;;;;;;;;;1.00;1.00;;;;;28.07;32.58;70103.06;6339628;22;45834;-88
2023/05/31 16:23:42;;;;;;;;;0.67;0.67;;;;;28.48;32.88;70131.47;6368551;22;45352;-88
2023/05/31 16:26:08;;;;;;;;;0.33;0.33;;;;;28.37;32.68;70154.22;6340001;22;45429;-89